Weather reports worldwide

Advertisment
Leuchtturm Alte Weser, Germany (10124): temperature & dewpoint: 12.10.2018 03:00:00 - 18.10.2018 03:00:00 (CEST)Leuchtturm Alte Weser, Germany (10124): wind speed & gusts: 12.10.2018 03:00:00 - 18.10.2018 03:00:00 (CEST)Leuchtturm Alte Weser, Germany (10124): wind direction: 12.10.2018 03:00:00 - 18.10.2018 03:00:00 (CEST)Leuchtturm Alte Weser, Germany (10124): reduced air pressure: 12.10.2018 03:00:00 - 18.10.2018 03:00:00 (CEST)Leuchtturm Alte Weser, Germany (10124): sunshine duration: 12.10.2018 03:00:00 - 18.10.2018 03:00:00 (CEST)
Date & Time tt [°C] td [°C] ff [km/h] ff [kn] fx [km/h] fx [kn] dd ppp [hPa] sd [min]
18.10.2018 03:00:00 14,5 13,3 22 12 - - NNW 1021,0 0
18.10.2018 02:00:00 14,3 13,3 14 8 - - W 1021,0 0
18.10.2018 01:00:00 14,3 12,9 14 8 - - W 1020,9 0
18.10.2018 00:00:00 14,4 13,0 14 8 - - W 1020,8 0
17.10.2018 23:00:00 14,5 14,0 11 6 - - W 1020,7 0
17.10.2018 22:00:00 14,7 13,3 7 4 - - NW 1020,7 0
17.10.2018 21:00:00 14,9 13,2 11 6 - - NW 1020,3 0
17.10.2018 20:00:00 15,1 13,6 11 6 - - NW 1020,0 0
17.10.2018 19:00:00 14,9 14,6 14 8 - - NW 1019,6 0
17.10.2018 18:00:00 14,8 14,8 18 10 - - WNW 1019,3 6
17.10.2018 17:00:00 14,9 14,7 14 8 - - W 1019,1 30
17.10.2018 16:00:00 15,0 14,7 22 12 - - WNW 1018,7 0
17.10.2018 15:00:00 15,2 13,9 25 14 - - W 1018,6 0
17.10.2018 14:00:00 15,9 12,5 18 10 - - W 1018,6 12
17.10.2018 13:00:00 15,9 12,0 14 8 - - SW 1018,5 60
17.10.2018 12:00:00 15,1 11,7 18 10 - - SSW 1018,5 60
17.10.2018 11:00:00 14,8 12,5 22 12 - - SSW 1018,3 54
17.10.2018 10:00:00 14,9 12,4 22 12 - - S 1018,0 0
17.10.2018 09:00:00 15,1 12,4 25 14 - - S 1017,9 0
17.10.2018 08:00:00 14,9 13,2 22 12 - - S 1017,7 0
17.10.2018 07:00:00 15,0 13,1 29 16 - - S 1017,3 0
17.10.2018 06:00:00 15,1 13,3 29 16 - - S 1017,4 0
17.10.2018 05:00:00 15,8 13,3 25 14 - - S 1017,3 0
17.10.2018 04:00:00 16,1 13,3 25 14 - - S 1017,5 0
17.10.2018 03:00:00 15,8 13,5 22 12 - - S 1017,9 0
17.10.2018 02:00:00 16,4 13,7 25 14 - - S 1018,1 0
17.10.2018 01:00:00 16,8 13,8 32 18 - - S 1017,9 0
17.10.2018 00:00:00 18,5 14,0 25 14 - - S 1018,0 0
16.10.2018 23:00:00 18,8 14,3 29 16 - - S 1018,3 0
16.10.2018 22:00:00 19,2 14,5 22 12 - - SSE 1018,4 0
16.10.2018 21:00:00 19,9 14,8 22 12 - - S 1018,5 0
16.10.2018 20:00:00 19,6 15,2 18 10 - - SSE 1018,5 0
16.10.2018 19:00:00 17,9 14,8 14 8 - - SE 1018,6 0
16.10.2018 18:00:00 16,8 14,8 14 8 - - ESE 1018,3 30
16.10.2018 17:00:00 17,8 14,5 7 4 - - ESE 1018,3 60
16.10.2018 16:00:00 17,0 14,1 4 2 - - SSW 1018,1 60
16.10.2018 15:00:00 15,5 14,0 7 4 - - WSW 1018,1 60
16.10.2018 14:00:00 15,7 14,6 14 8 - - WSW 1018,2 54
16.10.2018 13:00:00 15,4 14,7 22 12 - - WSW 1018,1 0
16.10.2018 12:00:00 15,3 14,4 22 12 - - WSW 1018,1 0
16.10.2018 11:00:00 15,3 14,4 22 12 - - WSW 1017,9 0
16.10.2018 10:00:00 15,8 14,0 22 12 - - WSW 1017,2 30
16.10.2018 09:00:00 16,4 13,9 22 12 - - SW 1016,8 0
16.10.2018 08:00:00 16,3 13,8 22 12 - - SW 1016,3 0
16.10.2018 07:00:00 16,8 13,0 25 14 - - SSW 1015,7 0
16.10.2018 06:00:00 17,0 12,9 22 12 - - SSW 1015,5 0
16.10.2018 05:00:00 17,5 12,7 14 8 - - SSW 1015,3 0
16.10.2018 04:00:00 18,5 12,5 11 6 - - SW 1015,3 0
16.10.2018 03:00:00 18,4 12,6 11 6 - - WSW 1015,3 0
16.10.2018 02:00:00 17,2 12,8 11 6 - - SW 1015,2 0
16.10.2018 01:00:00 16,6 13,0 0 0 - - S 1014,8 0
16.10.2018 00:00:00 17,5 12,9 11 6 - - WNW 1014,5 0
15.10.2018 23:00:00 18,4 13,7 18 10 - - W 1014,3 0
15.10.2018 22:00:00 19,5 13,5 14 8 - - SW 1013,8 0
15.10.2018 21:00:00 21,1 13,2 22 12 - - SW 1013,4 0
15.10.2018 20:00:00 21,4 12,9 25 14 - - SW 1013,3 0
15.10.2018 19:00:00 21,7 12,7 25 14 - - SSW 1012,8 0
15.10.2018 18:00:00 21,5 12,0 18 10 - - SSW 1012,4 54
15.10.2018 17:00:00 21,2 12,0 18 10 - - S 1012,1 60
15.10.2018 16:00:00 21,1 11,6 25 14 - - S 1011,6 60
15.10.2018 15:00:00 18,8 12,7 22 12 - - S 1011,8 60
15.10.2018 14:00:00 17,3 13,3 29 16 - - S 1011,8 60
15.10.2018 13:00:00 16,7 12,5 25 14 - - S 1011,8 60
15.10.2018 12:00:00 15,5 11,8 29 16 - - SSE 1011,9 60
15.10.2018 11:00:00 14,4 11,6 29 16 - - S 1011,6 60
15.10.2018 10:00:00 14,3 11,6 25 14 - - S 1011,5 60
15.10.2018 09:00:00 14,5 11,3 29 16 - - S 1011,1 36
15.10.2018 08:00:00 14,9 11,3 29 16 - - S 1010,7 0
15.10.2018 07:00:00 15,3 11,3 29 16 - - SSE 1010,3 0
15.10.2018 06:00:00 15,7 11,5 25 14 - - SSE 1010,1 0
15.10.2018 05:00:00 16,1 11,5 29 16 - - S 1010,0 0
15.10.2018 04:00:00 16,4 11,8 32 18 - - SSE 1010,0 0
15.10.2018 03:00:00 17,0 11,6 32 18 - - S 1009,9 0
15.10.2018 02:00:00 16,8 11,8 32 18 - - S 1009,7 0
15.10.2018 01:00:00 17,9 11,5 36 19 - - SSE 1009,7 0
15.10.2018 00:00:00 18,9 11,4 43 23 - - SSE 1009,4 0
14.10.2018 23:00:00 18,4 11,8 40 21 - - SSE 1009,3 0
14.10.2018 22:00:00 20,4 11,5 43 23 47 25 SSE 1008,9 0
14.10.2018 21:00:00 20,0 12,3 43 23 - - SSE 1008,8 0
14.10.2018 20:00:00 21,2 12,6 40 21 - - SSE 1008,5 0
14.10.2018 19:00:00 22,8 12,0 40 21 - - SSE 1008,1 0
14.10.2018 18:00:00 21,5 12,4 32 18 - - S 1007,7 60
14.10.2018 17:00:00 22,8 13,0 32 18 - - SSE 1007,6 60
14.10.2018 16:00:00 21,8 12,6 36 19 - - SSE 1007,7 60
14.10.2018 15:00:00 20,5 12,4 32 18 - - SSE 1008,1 60
14.10.2018 14:00:00 19,5 12,2 29 16 - - SSE 1008,6 60
14.10.2018 13:00:00 18,0 11,9 25 14 - - SSE 1009,5 60
14.10.2018 12:00:00 16,0 11,2 32 18 - - SSE 1009,9 60
14.10.2018 11:00:00 15,7 10,3 29 16 - - SSE 1010,2 60
14.10.2018 10:00:00 15,9 10,2 32 18 - - SSE 1010,3 60
14.10.2018 09:00:00 15,5 10,2 32 18 - - SSE 1010,7 42
14.10.2018 08:00:00 15,8 10,6 32 18 - - SSE 1010,8 0
14.10.2018 07:00:00 16,3 10,9 32 18 - - SE 1010,9 0
14.10.2018 06:00:00 17,0 11,0 32 18 - - SSE 1011,7 0
14.10.2018 05:00:00 18,2 10,7 36 19 - - SSE 1012,0 0
14.10.2018 04:00:00 18,8 10,9 36 19 47 25 SSE 1012,7 0
14.10.2018 03:00:00 18,6 11,2 40 21 47 25 SSE 1013,3 0
14.10.2018 02:00:00 18,8 11,3 43 23 - - SSE 1013,6 0
14.10.2018 01:00:00 19,1 11,4 43 23 50 27 SSE 1014,0 0
14.10.2018 00:00:00 20,3 11,3 40 21 50 27 SSE 1014,2 0
13.10.2018 23:00:00 21,3 11,3 43 23 - - SSE 1014,5 0
13.10.2018 22:00:00 23,1 11,2 50 27 61 33 SSE 1014,4 0
13.10.2018 21:00:00 23,2 11,8 47 25 58 31 SSE 1014,8 0
13.10.2018 20:00:00 24,0 12,8 43 23 - - SSE 1015,3 0
13.10.2018 19:00:00 24,4 14,0 40 21 47 25 SSE 1015,4 6
13.10.2018 18:00:00 24,5 14,0 36 19 47 25 SSE 1015,6 60
13.10.2018 17:00:00 24,6 14,5 29 16 - - SSE 1016,2 60
13.10.2018 16:00:00 23,9 14,9 29 16 - - SSE 1016,9 60
13.10.2018 15:00:00 22,5 15,0 25 14 - - SSE 1017,6 60
13.10.2018 14:00:00 21,1 15,1 32 18 - - SSE 1018,2 60
13.10.2018 13:00:00 20,5 15,0 32 18 - - SSE 1018,8 60
13.10.2018 12:00:00 17,5 14,1 29 16 - - S 1019,3 60
13.10.2018 11:00:00 17,1 13,3 36 19 - - S 1019,1 60
13.10.2018 10:00:00 16,3 13,0 40 21 - - S 1019,3 42
13.10.2018 09:00:00 16,5 13,1 43 23 - - S 1019,2 12
13.10.2018 08:00:00 16,1 13,5 40 21 - - S 1019,1 0
13.10.2018 07:00:00 16,5 13,7 40 21 - - S 1019,0 0
13.10.2018 06:00:00 16,6 13,8 40 21 - - SSE 1019,5 0
13.10.2018 05:00:00 16,9 13,8 40 21 - - S 1019,2 0
13.10.2018 04:00:00 16,6 13,7 40 21 - - S 1019,3 0
13.10.2018 03:00:00 16,9 13,7 40 21 - - S 1019,0 0
13.10.2018 02:00:00 17,8 13,7 40 21 - - S 1018,9 0
13.10.2018 01:00:00 17,4 13,7 43 23 47 25 S 1019,0 0
13.10.2018 00:00:00 17,4 13,8 40 21 47 25 S 1019,3 0
12.10.2018 23:00:00 19,7 14,1 40 21 - - SSE 1019,0 0
12.10.2018 22:00:00 20,6 14,3 36 19 - - SSE 1018,9 0
12.10.2018 21:00:00 20,9 14,4 40 21 - - SSE 1018,7 0
12.10.2018 20:00:00 21,3 14,7 40 21 - - SSE 1019,0 0
12.10.2018 19:00:00 21,3 14,3 36 19 - - S 1018,9 12
12.10.2018 18:00:00 21,8 13,8 36 19 - - S 1018,8 54
12.10.2018 17:00:00 21,2 13,6 32 18 - - S 1018,7 60
12.10.2018 16:00:00 20,2 13,3 29 16 - - S 1018,9 60
12.10.2018 15:00:00 19,6 13,0 32 18 - - S 1018,5 60
12.10.2018 14:00:00 19,2 13,3 29 16 - - S 1018,3 60
12.10.2018 13:00:00 17,7 13,7 25 14 - - S 1018,4 60
12.10.2018 12:00:00 16,1 13,3 22 12 - - S 1018,4 60
12.10.2018 11:00:00 15,4 12,7 25 14 - - S 1018,1 60
12.10.2018 10:00:00 15,1 12,1 32 18 - - S 1017,6 60
12.10.2018 09:00:00 14,6 11,8 29 16 - - S 1016,4 42
12.10.2018 08:00:00 14,8 11,6 32 18 - - S 1015,6 0
12.10.2018 07:00:00 14,7 11,6 36 19 - - S 1014,9 0
12.10.2018 06:00:00 15,0 11,4 36 19 - - SSE 1013,8 0
12.10.2018 05:00:00 16,5 11,2 36 19 - - SSE 1013,6 0
12.10.2018 04:00:00 15,2 11,5 32 18 - - SSE 1013,8 0
12.10.2018 03:00:00 15,3 11,7 32 18 - - S 1013,7 0

tt = temperature
td = dewpoint
ff = wind speed
fx = gusts
dd = wind direction
ppp = reduced air pressure
sd = sunshine duration

Next stations